Time;durP1;ratioP1;P1;durP2;ratioP2;P2;SDS_P1;SDS_P2;PMS_P1;PMS_P2;Temp;Humidity;BMP_temperature;BMP_pressure;BME280_temperature;BME280_humidity;BME280_pressure;Samples;Min_cycle;Max_cycle;Signal;HPM_P1;HPM_P2
2023/04/04 00:01:57;;;;;;;31.57;28.57;;;;;;;21.27;37.54;93613.53;6018805;28;109013;-64
2023/04/04 00:05:00;;;;;;;32.50;29.60;;;;;;;21.24;37.90;93609.66;6011822;28;109201;-63
2023/04/04 00:08:05;;;;;;;30.30;27.57;;;;;;;21.24;37.66;93609.66;6020895;28;108944;-62
2023/04/04 00:11:08;;;;;;;30.57;27.80;;;;;;;21.23;37.47;93604.66;6021383;28;109988;-62
2023/04/04 00:14:12;;;;;;;29.67;27.20;;;;;;;21.24;37.57;93614.97;6021610;28;108926;-62
2023/04/04 00:17:15;;;;;;;30.13;27.53;;;;;;;21.23;38.02;93623.28;6015567;28;108922;-62
2023/04/04 00:20:18;;;;;;;29.40;26.80;;;;;;;21.23;37.92;93621.41;6015622;28;108877;-62
2023/04/04 00:23:23;;;;;;;29.20;26.70;;;;;;;21.20;37.95;93619.41;6015258;28;109115;-62
2023/04/04 00:26:26;;;;;;;31.50;28.80;;;;;;;21.23;37.89;93621.41;6019161;28;108992;-62
2023/04/04 00:29:30;;;;;;;29.80;27.30;;;;;;;21.21;37.86;93613.75;6007437;28;108972;-62
2023/04/04 00:32:33;;;;;;;29.47;27.03;;;;;;;21.19;37.69;93608.00;6019461;28;109242;-63
2023/04/04 00:35:37;;;;;;;28.90;26.40;;;;;;;21.20;37.73;93614.09;6020279;28;109779;-62
2023/04/04 00:38:41;;;;;;;29.23;26.63;;;;;;;21.17;37.72;93601.44;6012609;28;109014;-62
2023/04/04 00:41:44;;;;;;;30.27;27.67;;;;;;;21.19;37.88;93601.91;6015056;28;108978;-62
2023/04/04 00:44:48;;;;;;;30.97;28.27;;;;;;;21.18;37.82;93595.81;6023908;28;109112;-62
2023/04/04 00:47:52;;;;;;;32.40;29.53;;;;;;;21.18;37.52;93589.72;6018045;28;109873;-62
2023/04/04 00:50:55;;;;;;;33.97;30.97;;;;;;;21.18;37.60;93582.50;6007954;28;109207;-62
2023/04/04 00:54:00;;;;;;;33.40;30.50;;;;;;;21.16;37.58;93584.69;6020475;28;108909;-62
2023/04/04 00:57:06;;;;;;;37.67;34.27;;;;;;;21.14;37.88;93572.84;6021974;28;108895;-63
2023/04/04 01:00:12;;;;;;;34.50;31.60;;;;;;;21.15;37.68;93571.75;6016355;28;108875;-62
2023/04/04 01:03:15;;;;;;;37.07;33.77;;;;;;;21.14;37.65;93578.94;5993929;28;109275;-62
2023/04/04 01:06:20;;;;;;;37.70;34.40;;;;;;;21.16;37.68;93583.94;6017904;28;109179;-62
2023/04/04 01:09:24;;;;;;;39.63;36.23;;;;;;;21.14;37.84;93588.81;6018721;28;110165;-62
2023/04/04 01:12:28;;;;;;;38.50;35.30;;;;;;;21.14;37.90;93584.28;6028852;28;108925;-63
2023/04/04 01:15:32;;;;;;;39.57;36.13;;;;;;;21.16;37.59;93589.25;6012867;28;109320;-62
2023/04/04 01:18:38;;;;;;;38.57;35.13;;;;;;;21.13;38.01;93581.94;6019610;28;108921;-62
2023/04/04 01:21:43;;;;;;;39.27;35.63;;;;;;;21.14;38.01;93594.91;6022417;28;108743;-63
2023/04/04 01:24:49;;;;;;;39.80;36.43;;;;;;;21.14;37.60;93594.91;6011687;28;110387;-63
2023/04/04 01:27:55;;;;;;;37.60;34.40;;;;;;;21.13;37.82;93609.31;6018079;28;109405;-63
2023/04/04 01:31:01;;;;;;;37.63;34.40;;;;;;;21.13;37.71;93601.34;6018363;28;108905;-62
2023/04/04 01:34:12;;;;;;;37.03;33.93;;;;;;;21.12;37.74;93594.47;6021451;28;110338;-62
2023/04/04 01:37:22;;;;;;;39.03;35.63;;;;;;;21.12;37.91;93604.34;6010835;28;108989;-62
2023/04/04 01:40:28;;;;;;;38.93;35.57;;;;;;;21.13;37.90;93597.91;6016649;28;108794;-62
2023/04/04 01:43:33;;;;;;;36.43;33.40;;;;;;;21.10;37.58;93603.91;6030073;28;108871;-62
2023/04/04 01:46:37;;;;;;;35.73;32.73;;;;;;;21.11;37.83;93592.16;6016282;28;109021;-63
2023/04/04 01:49:41;;;;;;;34.77;31.67;;;;;;;21.10;37.70;93590.59;6007264;28;108954;-63
2023/04/04 01:52:44;;;;;;;35.77;32.60;;;;;;;21.12;37.72;93581.16;6028755;28;109017;-64
2023/04/04 01:55:47;;;;;;;37.60;34.30;;;;;;;21.10;37.73;93575.41;6017399;28;108953;-62
2023/04/04 01:58:52;;;;;;;36.63;33.40;;;;;;;21.10;37.47;93577.31;6016567;28;108913;-63
2023/04/04 02:01:56;;;;;;;37.90;34.70;;;;;;;21.09;38.08;93570.44;6023924;28;110051;-62
2023/04/04 02:05:00;;;;;;;35.33;32.33;;;;;;;21.05;37.89;93569.56;6022900;28;109070;-62
2023/04/04 02:08:04;;;;;;;37.23;34.03;;;;;;;21.09;37.80;93573.09;6025188;28;109001;-62
2023/04/04 02:11:07;;;;;;;36.90;33.80;;;;;;;21.12;37.80;93577.75;6007531;28;109223;-63
2023/04/04 02:14:12;;;;;;;36.33;33.33;;;;;;;21.10;37.71;93574.63;6020941;28;108906;-62
2023/04/04 02:17:15;;;;;;;36.30;33.17;;;;;;;21.13;37.79;93576.63;6021941;28;108942;-63
2023/04/04 02:20:19;;;;;;;36.13;33.03;;;;;;;21.14;37.72;93572.84;6018489;28;109046;-62
2023/04/04 02:23:22;;;;;;;36.03;33.03;;;;;;;21.13;37.68;93561.44;6005780;28;109082;-62
2023/04/04 02:26:25;;;;;;;37.00;33.70;;;;;;;21.15;37.54;93563.75;6016435;28;108900;-62
2023/04/04 02:29:30;;;;;;;36.90;33.80;;;;;;;21.17;37.43;93556.22;6020468;28;108858;-62
2023/04/04 02:32:33;;;;;;;35.80;32.83;;;;;;;21.17;37.49;93564.19;6011698;28;108948;-62
2023/04/04 02:35:36;;;;;;;36.27;32.97;;;;;;;21.16;37.76;93562.66;6020588;28;110375;-62
2023/04/04 02:38:40;;;;;;;37.20;33.80;;;;;;;21.16;37.49;93552.78;6018767;28;109109;-62
2023/04/04 02:41:43;;;;;;;36.13;33.13;;;;;;;21.16;37.32;93562.66;6023003;28;108920;-62
2023/04/04 02:44:48;;;;;;;37.10;33.90;;;;;;;21.16;37.50;93574.06;6019838;28;109020;-62
2023/04/04 02:47:52;;;;;;;35.93;32.83;;;;;;;21.17;37.53;93569.50;6028173;28;108981;-62
2023/04/04 02:50:55;;;;;;;38.60;35.33;;;;;;;21.16;37.49;93565.31;6034273;28;108919;-62
2023/04/04 02:53:59;;;;;;;36.40;33.30;;;;;;;21.17;37.49;93567.66;6022639;28;109418;-62
2023/04/04 02:57:03;;;;;;;37.40;33.53;;;;;;;21.18;37.68;93568.44;6009696;28;109386;-62
2023/04/04 03:00:10;;;;;;;36.23;33.17;;;;;;;21.17;37.50;93566.84;6020263;28;109336;-62
2023/04/04 03:03:13;;;;;;;34.27;31.27;;;;;;;21.16;37.42;93552.78;6023997;28;109187;-61
2023/04/04 03:06:17;;;;;;;35.70;32.47;;;;;;;21.17;37.51;93556.22;6022591;28;108951;-63
2023/04/04 03:09:20;;;;;;;33.17;30.33;;;;;;;21.16;37.62;93544.81;6021095;28;108939;-62
2023/04/04 03:12:24;;;;;;;33.57;30.77;;;;;;;21.16;37.78;93554.66;6035455;28;108983;-61
2023/04/04 03:15:29;;;;;;;33.07;30.30;;;;;;;21.17;37.71;93561.53;6031284;28;109217;-62
2023/04/04 03:18:33;;;;;;;31.50;28.60;;;;;;;21.15;38.26;93567.19;6024332;28;109771;-65
2023/04/04 03:21:36;;;;;;;17.03;15.60;;;;;;;20.88;38.13;93560.69;6033261;28;108944;-65
2023/04/04 03:24:39;;;;;;;14.03;12.73;;;;;;;20.68;38.04;93566.13;6033396;28;108977;-65
2023/04/04 03:27:43;;;;;;;13.00;11.90;;;;;;;20.68;38.16;93556.25;6019559;28;109057;-64
2023/04/04 03:30:47;;;;;;;11.20;10.20;;;;;;;20.67;38.15;93551.25;6009553;28;109733;-64
2023/04/04 03:33:51;;;;;;;10.97;10.17;;;;;;;20.54;38.31;93547.84;6021146;28;109236;-66
2023/04/04 03:36:56;;;;;;;11.90;10.90;;;;;;;20.54;38.61;93550.50;6031377;28;108901;-65
2023/04/04 03:39:59;;;;;;;14.60;13.47;;;;;;;20.53;38.63;93556.94;6028111;28;108886;-64
2023/04/04 03:43:02;;;;;;;14.70;13.50;;;;;;;20.57;38.75;93557.81;6026732;28;108928;-64
2023/04/04 03:46:07;;;;;;;13.93;12.83;;;;;;;20.54;38.65;93572.53;6027500;28;109210;-67
2023/04/04 03:49:16;;;;;;;12.80;11.77;;;;;;;20.58;38.67;93562.78;6020941;28;108903;-68
2023/04/04 03:52:19;;;;;;;11.67;10.67;;;;;;;20.64;39.01;93571.31;6017061;28;110902;-67
2023/04/04 03:55:26;;;;;;;11.33;10.33;;;;;;;20.59;39.35;93564.34;6017369;28;109051;-65
2023/04/04 03:58:32;;;;;;;9.47;8.30;;;;;;;20.39;38.94;93580.38;6019367;28;108855;-65
2023/04/04 04:01:37;;;;;;;6.53;6.00;;;;;;;20.19;39.16;93556.19;6019581;28;109210;-65
2023/04/04 04:04:40;;;;;;;4.63;4.33;;;;;;;20.34;38.99;93567.31;6018000;28;110880;-64
2023/04/04 04:07:44;;;;;;;5.07;4.77;;;;;;;20.49;40.20;93558.66;6028482;28;108972;-62
2023/04/04 04:10:47;;;;;;;5.23;4.80;;;;;;;20.55;40.27;93557.38;6024508;28;108989;-62
2023/04/04 04:13:51;;;;;;;5.00;4.50;;;;;;;20.54;40.00;93569.09;6030581;28;109180;-62
2023/04/04 04:16:55;;;;;;;3.93;3.63;;;;;;;20.57;39.83;93558.56;6008455;28;109033;-67
2023/04/04 04:19:59;;;;;;;4.37;4.00;;;;;;;20.68;40.06;93569.56;6019726;28;108922;-71
2023/04/04 04:23:02;;;;;;;4.87;4.13;;;;;;;20.73;39.70;93569.31;6019967;28;109027;-71
2023/04/04 04:26:05;;;;;;;5.37;4.80;;;;;;;20.69;39.53;93573.75;6015383;28;109010;-65
2023/04/04 04:29:09;;;;;;;5.37;3.80;;;;;;;20.57;39.34;93577.19;6014490;28;108945;-65
2023/04/04 04:32:17;;;;;;;3.77;3.47;;;;;;;20.42;39.46;93569.84;6019836;28;108989;-64
2023/04/04 04:35:20;;;;;;;4.60;3.37;;;;;;;20.42;39.42;93585.81;6020295;29;108857;-64
2023/04/04 04:38:23;;;;;;;4.17;3.87;;;;;;;20.41;39.59;93594.09;5986746;29;109025;-64
2023/04/04 04:41:28;;;;;;;3.60;3.30;;;;;;;20.40;39.71;93597.88;6000390;28;108918;-64
2023/04/04 04:44:31;;;;;;;3.83;3.53;;;;;;;20.40;39.61;93603.19;6042309;28;109088;-64
2023/04/04 04:47:36;;;;;;;3.30;3.10;;;;;;;20.38;39.43;93600.84;6043203;28;108846;-65
2023/04/04 04:50:40;;;;;;;3.30;3.10;;;;;;;20.39;39.52;93604.28;6032146;28;108991;-64
2023/04/04 04:53:44;;;;;;;3.53;3.30;;;;;;;20.34;39.83;93605.28;6043001;28;108889;-64
2023/04/04 04:56:47;;;;;;;4.07;3.77;;;;;;;20.39;39.36;93610.38;6042948;28;108865;-64
2023/04/04 04:59:51;;;;;;;3.83;3.53;;;;;;;20.39;39.30;93612.25;6041012;28;109061;-64
2023/04/04 05:02:56;;;;;;;4.03;3.73;;;;;;;20.40;39.42;93619.13;6035089;28;108942;-65
2023/04/04 05:06:00;;;;;;;3.53;3.23;;;;;;;20.31;39.00;93606.69;6005291;28;108894;-64
2023/04/04 05:09:03;;;;;;;3.90;3.60;;;;;;;20.37;39.35;93615.25;6013441;29;108918;-64
2023/04/04 05:12:06;;;;;;;4.47;4.07;;;;;;;20.32;39.48;93618.09;6015502;28;108917;-64
2023/04/04 05:15:10;;;;;;;4.53;3.73;;;;;;;20.36;39.42;93631.50;6040953;28;109009;-64
2023/04/04 05:18:14;;;;;;;4.00;3.60;;;;;;;20.36;39.30;93634.94;6042606;28;108975;-64
2023/04/04 05:21:18;;;;;;;4.17;3.77;;;;;;;20.33;39.32;93635.59;6042532;28;108894;-64
2023/04/04 05:24:22;;;;;;;4.30;3.90;;;;;;;20.34;39.60;93633.72;6031711;28;109103;-64
2023/04/04 05:27:25;;;;;;;4.33;3.93;;;;;;;20.29;39.39;93626.72;6042428;28;108958;-64
2023/04/04 05:30:29;;;;;;;4.63;4.33;;;;;;;20.27;39.37;93624.41;6035672;28;108996;-64
2023/04/04 05:33:33;;;;;;;4.50;4.20;;;;;;;20.32;39.36;93640.13;5995559;29;108851;-64
2023/04/04 05:36:37;;;;;;;5.27;4.60;;;;;;;20.34;39.49;93637.16;5984620;29;108946;-64
2023/04/04 05:39:40;;;;;;;5.60;5.10;;;;;;;20.37;39.32;93636.50;5995493;29;108993;-64
2023/04/04 05:42:43;;;;;;;6.00;5.10;;;;;;;20.33;39.47;93638.25;6016312;28;108961;-64
2023/04/04 05:45:46;;;;;;;5.93;5.33;;;;;;;20.30;39.58;93637.03;6035907;28;109235;-64
2023/04/04 05:48:51;;;;;;;5.10;4.70;;;;;;;20.35;39.54;93644.03;6037780;28;108910;-65
2023/04/04 05:51:56;;;;;;;5.80;5.30;;;;;;;20.36;39.72;93639.50;6041939;28;109029;-67
2023/04/04 05:54:59;;;;;;;5.80;5.30;;;;;;;20.44;39.34;93641.25;6041736;28;109064;-64
2023/04/04 05:58:02;;;;;;;6.07;5.47;;;;;;;20.46;39.52;93647.03;6031325;28;108948;-64
2023/04/04 06:01:07;;;;;;;6.40;5.80;;;;;;;20.37;39.66;93641.81;6041810;28;108877;-64
2023/04/04 06:04:12;;;;;;;7.17;5.10;;;;;;;20.39;39.78;93647.56;6041587;28;108959;-63
2023/04/04 06:07:16;;;;;;;6.63;6.03;;;;;;;20.38;39.67;93648.69;6041406;28;109294;-64
2023/04/04 06:10:19;;;;;;;6.73;6.13;;;;;;;20.38;39.85;93658.53;6030930;28;108923;-64
2023/04/04 06:13:23;;;;;;;7.17;6.47;;;;;;;20.39;39.79;93650.22;6026263;28;108929;-64
2023/04/04 06:16:26;;;;;;;7.47;6.83;;;;;;;20.42;39.62;93651.44;6017127;28;109056;-64
2023/04/04 06:19:31;;;;;;;6.70;6.00;;;;;;;20.39;39.83;93652.88;6014174;28;108889;-64
2023/04/04 06:22:34;;;;;;;7.13;6.10;;;;;;;20.37;39.86;93649.00;6011698;28;109015;-64
2023/04/04 06:25:38;;;;;;;7.83;6.40;;;;;;;20.41;39.74;93663.19;6017890;28;108936;-64
2023/04/04 06:28:48;;;;;;;5.80;5.27;;;;;;;20.42;39.89;93665.50;6017172;29;108927;-64
2023/04/04 06:31:51;;;;;;;6.47;5.83;;;;;;;20.42;40.00;93673.47;6008311;29;108834;-64
2023/04/04 06:34:56;;;;;;;6.20;5.60;;;;;;;20.42;39.79;93675.34;6017920;29;108910;-64
2023/04/04 06:37:59;;;;;;;6.97;6.27;;;;;;;20.50;41.48;93683.25;6017907;28;109023;-68
2023/04/04 06:41:03;;;;;;;6.33;5.73;;;;;;;20.58;39.79;93678.94;6017872;28;108937;-64
2023/04/04 06:44:06;;;;;;;6.13;5.63;;;;;;;20.63;39.39;93687.47;6027003;28;108913;-64
2023/04/04 06:47:10;;;;;;;6.73;5.20;;;;;;;20.64;39.43;93685.59;6040464;28;109107;-65
2023/04/04 06:50:15;;;;;;;5.47;4.97;;;;;;;20.62;39.53;93685.16;6041122;28;108979;-64
2023/04/04 06:53:18;;;;;;;7.30;6.03;;;;;;;20.63;39.14;93692.78;6041084;28;108883;-64
2023/04/04 06:56:22;;;;;;;6.53;5.90;;;;;;;20.60;39.39;93693.44;6030481;28;108915;-64
2023/04/04 06:59:26;;;;;;;5.73;5.27;;;;;;;20.67;39.42;93724.81;6040877;28;109320;-64
2023/04/04 07:02:30;;;;;;;5.30;4.90;;;;;;;20.59;39.33;93720.34;6040961;28;108988;-64
2023/04/04 07:05:38;;;;;;;5.80;5.10;;;;;;;20.48;39.68;93733.28;6033833;28;109959;-64
2023/04/04 07:08:41;;;;;;;6.30;5.27;;;;;;;20.45;39.58;93751.75;6040330;28;108938;-64
2023/04/04 07:11:45;;;;;;;4.77;4.27;;;;;;;20.44;39.46;93763.47;6040897;28;108930;-64
2023/04/04 07:14:48;;;;;;;4.33;3.93;;;;;;;20.40;39.28;93768.69;6018051;28;108977;-64
2023/04/04 07:17:51;;;;;;;4.47;4.17;;;;;;;20.42;39.08;93771.00;6006382;28;108997;-64
2023/04/04 07:20:57;;;;;;;4.00;3.70;;;;;;;20.39;39.16;93784.94;6017200;29;108884;-64
2023/04/04 07:24:01;;;;;;;3.47;3.17;;;;;;;20.38;39.03;93788.72;6017176;29;108843;-64
2023/04/04 07:27:04;;;;;;;3.53;3.23;;;;;;;20.39;38.88;93788.38;6017131;29;108915;-64
2023/04/04 07:30:08;;;;;;;3.57;3.13;;;;;;;20.35;38.76;93786.72;6006721;29;109671;-63
2023/04/04 07:33:12;;;;;;;2.80;2.60;;;;;;;20.34;38.52;93793.13;6017072;29;109026;-63
2023/04/04 07:36:16;;;;;;;3.00;2.80;;;;;;;20.33;38.47;93797.63;6017027;29;108890;-63
2023/04/04 07:39:20;;;;;;;2.60;2.40;;;;;;;20.33;38.39;93808.25;6014927;28;109348;-64
2023/04/04 07:42:24;;;;;;;2.50;2.30;;;;;;;20.29;38.26;93810.00;6017376;28;109279;-64
2023/04/04 07:45:27;;;;;;;1.90;1.80;;;;;;;20.34;37.96;93809.06;6044086;28;108901;-64
2023/04/04 07:48:30;;;;;;;2.70;2.50;;;;;;;20.34;38.01;93809.84;6043486;28;108869;-64
2023/04/04 07:51:35;;;;;;;2.87;2.50;;;;;;;20.32;38.00;93810.13;6033939;28;109084;-64
2023/04/04 07:54:39;;;;;;;2.70;2.50;;;;;;;20.34;37.85;93817.81;6044185;28;108894;-64
2023/04/04 07:57:42;;;;;;;3.33;2.10;;;;;;;20.31;38.02;93816.56;6044130;28;108896;-64
2023/04/04 08:00:46;;;;;;;2.20;2.07;;;;;;;20.29;37.80;93820.63;6044283;28;108859;-64
2023/04/04 08:03:52;;;;;;;1.97;1.60;;;;;;;20.47;39.71;93840.66;6032806;28;109152;-69
2023/04/04 08:06:57;;;;;;;2.30;2.10;;;;;;;20.55;38.01;93839.84;6043913;28;108892;-64
2023/04/04 08:10:00;;;;;;;2.33;2.10;;;;;;;20.42;37.91;93840.09;6043924;28;108961;-65
2023/04/04 08:13:04;;;;;;;1.93;1.83;;;;;;;20.36;37.60;93844.06;6036987;28;108976;-64
2023/04/04 08:16:08;;;;;;;2.27;1.70;;;;;;;20.26;37.53;93847.84;6012901;28;110048;-65
2023/04/04 08:19:12;;;;;;;2.00;1.90;;;;;;;20.24;37.48;93872.09;6019686;29;109060;-65
2023/04/04 08:22:17;;;;;;;1.90;1.80;;;;;;;20.21;37.43;93870.06;6020282;29;108964;-65
2023/04/04 08:25:20;;;;;;;1.70;1.50;;;;;;;20.19;37.38;93879.44;6010715;28;109867;-64
2023/04/04 08:28:23;;;;;;;2.60;1.70;;;;;;;20.17;37.30;93871.81;6019256;28;109009;-65
2023/04/04 08:31:28;;;;;;;3.20;2.07;;;;;;;20.17;37.18;93881.66;6020085;28;108857;-64
2023/04/04 08:34:32;;;;;;;1.63;1.50;;;;;;;20.15;36.94;93873.97;6019768;28;109003;-65
2023/04/04 08:37:37;;;;;;;1.80;1.60;;;;;;;20.16;36.96;93875.53;6009009;28;108854;-65
2023/04/04 08:40:40;;;;;;;1.83;1.60;;;;;;;20.18;36.92;93867.25;6019943;28;109038;-65
2023/04/04 08:43:45;;;;;;;1.50;1.40;;;;;;;20.15;37.03;93873.19;6030742;28;108859;-65
2023/04/04 08:46:50;;;;;;;1.80;1.63;;;;;;;20.13;36.86;93870.88;6043284;28;108948;-65
2023/04/04 08:49:55;;;;;;;1.80;1.50;;;;;;;20.10;36.72;93886.66;6031042;28;109243;-65
2023/04/04 08:53:03;;;;;;;2.57;1.70;;;;;;;20.09;36.73;93893.09;6042852;28;108908;-65
2023/04/04 08:56:07;;;;;;;1.60;1.50;;;;;;;20.04;36.70;93899.34;6042965;28;108881;-65
2023/04/04 08:59:14;;;;;;;1.53;1.43;;;;;;;20.05;36.67;93911.53;6034009;28;108998;-65
2023/04/04 09:02:26;;;;;;;1.60;1.50;;;;;;;20.06;36.60;93913.09;6042466;28;109012;-65
2023/04/04 09:05:31;;;;;;;1.37;1.27;;;;;;;20.02;36.51;93922.81;6011075;28;108924;-65
2023/04/04 09:08:36;;;;;;;1.60;1.50;;;;;;;19.99;36.54;93923.41;5996169;29;108918;-65
2023/04/04 09:11:40;;;;;;;1.50;1.40;;;;;;;20.01;36.47;93932.66;5986983;29;108910;-65
2023/04/04 09:14:47;;;;;;;2.27;1.80;;;;;;;20.01;36.51;93930.00;6033563;28;108866;-66
2023/04/04 09:17:51;;;;;;;2.17;1.47;;;;;;;20.05;36.29;93926.69;6042526;28;108875;-65
2023/04/04 09:20:54;;;;;;;1.50;1.40;;;;;;;20.04;36.45;93920.59;6041862;28;108810;-64
2023/04/04 09:24:02;;;;;;;1.50;1.40;;;;;;;20.02;36.25;93928.13;6032105;28;109088;-64
2023/04/04 09:27:05;;;;;;;1.60;1.50;;;;;;;20.00;36.32;93925.78;6042455;28;108939;-64
2023/04/04 09:30:10;;;;;;;1.70;1.60;;;;;;;20.02;36.16;93925.47;6002273;28;109018;-64
2023/04/04 09:33:15;;;;;;;1.43;1.33;;;;;;;20.02;36.10;93922.81;5990219;29;108862;-64
2023/04/04 09:36:19;;;;;;;1.67;1.57;;;;;;;20.08;35.94;93921.50;5991911;29;109026;-64
2023/04/04 09:39:24;;;;;;;1.50;1.40;;;;;;;20.14;36.08;93920.22;5995606;29;109038;-65
2023/04/04 09:42:28;;;;;;;1.50;1.40;;;;;;;20.19;36.09;93917.41;5996959;28;108894;-64
2023/04/04 09:45:33;;;;;;;1.70;1.40;;;;;;;20.16;35.94;93925.22;6031698;28;109731;-64
2023/04/04 09:48:36;;;;;;;1.53;1.43;;;;;;;20.18;35.90;93921.16;6042132;28;108950;-64
2023/04/04 09:51:40;;;;;;;1.47;1.37;;;;;;;20.17;35.91;93929.47;6041355;28;109057;-65
2023/04/04 09:54:54;;;;;;;1.87;1.67;;;;;;;20.18;35.88;93937.09;6041936;28;108861;-64
2023/04/04 09:58:01;;;;;;;1.60;1.50;;;;;;;20.16;35.89;93947.25;6030799;28;110790;-64
2023/04/04 10:01:09;;;;;;;1.57;1.47;;;;;;;20.16;35.77;93943.81;6041002;28;108948;-64
2023/04/04 10:04:14;;;;;;;1.70;1.60;;;;;;;20.15;35.50;93951.00;6041476;28;108826;-64
2023/04/04 10:07:18;;;;;;;1.40;1.30;;;;;;;20.14;35.69;93948.66;6035988;28;108811;-64
2023/04/04 10:10:25;;;;;;;1.67;1.57;;;;;;;20.17;35.68;93953.34;6036920;28;108845;-64
2023/04/04 10:13:30;;;;;;;1.60;1.50;;;;;;;20.14;35.64;93954.75;6033720;28;108841;-65
2023/04/04 10:16:36;;;;;;;1.60;1.47;;;;;;;20.08;35.37;93948.06;6018267;29;108903;-65
2023/04/04 10:19:41;;;;;;;1.30;1.20;;;;;;;20.09;35.43;93972.75;6008737;29;109905;-65
2023/04/04 10:22:46;;;;;;;1.67;1.57;;;;;;;20.08;35.45;93973.84;6017267;28;108857;-65
2023/04/04 10:25:51;;;;;;;1.67;1.57;;;;;;;20.09;35.13;93978.84;6018202;29;108973;-65
2023/04/04 10:28:55;;;;;;;1.60;1.50;;;;;;;20.08;35.55;93974.63;6018137;29;108837;-65
2023/04/04 10:32:02;;;;;;;1.70;1.60;;;;;;;20.09;35.43;93970.09;6007493;29;109148;-64
2023/04/04 10:35:09;;;;;;;1.70;1.60;;;;;;;20.06;35.43;93979.47;6018131;29;108817;-72
2023/04/04 10:38:13;;;;;;;1.50;1.40;;;;;;;20.03;35.42;93978.25;6018096;28;109044;-64
2023/04/04 10:41:20;;;;;;;1.20;1.10;;;;;;;20.01;35.24;93979.66;6013351;28;108873;-64
2023/04/04 10:44:29;;;;;;;1.20;1.10;;;;;;;20.03;35.23;93985.44;6028722;28;108777;-64
2023/04/04 10:47:34;;;;;;;1.20;1.10;;;;;;;20.02;35.14;93986.53;6041547;28;109075;-64
2023/04/04 10:50:38;;;;;;;1.40;1.30;;;;;;;19.97;35.28;93989.34;6041224;28;108889;-64
2023/04/04 10:53:42;;;;;;;1.80;1.70;;;;;;;20.01;35.02;93995.59;6030765;28;110677;-65
2023/04/04 10:56:48;;;;;;;1.63;1.53;;;;;;;20.01;35.02;93995.59;6041380;28;108838;-64
2023/04/04 10:59:58;;;;;;;1.73;1.30;;;;;;;19.98;34.97;93993.56;6040855;28;108981;-64
2023/04/04 11:03:03;;;;;;;1.77;1.67;;;;;;;19.99;35.04;93992.44;6040912;28;109001;-64
2023/04/04 11:06:14;;;;;;;1.87;1.63;;;;;;;19.96;34.76;93995.75;6030255;28;108949;-64
2023/04/04 11:09:52;;;;;;;2.70;1.53;;;;;;;19.97;35.05;94003.41;6040647;28;108905;-64
2023/04/04 11:13:03;;;;;;;1.90;1.80;;;;;;;19.96;34.86;94006.38;6037836;28;108843;-64
2023/04/04 11:16:20;;;;;;;2.17;1.97;;;;;;;19.99;34.97;94011.03;6011633;28;109805;-64
2023/04/04 11:19:24;;;;;;;1.93;1.80;;;;;;;20.00;34.75;94015.28;6021450;29;108862;-65
2023/04/04 11:22:27;;;;;;;2.37;1.73;;;;;;;19.92;34.54;94013.41;6021446;28;108919;-64
2023/04/04 11:25:36;;;;;;;4.17;2.00;;;;;;;19.93;34.65;94015.75;6020540;29;109006;-64
2023/04/04 11:28:47;;;;;;;2.40;2.20;;;;;;;19.92;34.66;94010.75;6010840;28;111191;-64
2023/04/04 11:31:51;;;;;;;2.03;1.90;;;;;;;19.97;34.67;94018.53;6021266;28;108915;-64
2023/04/04 11:34:57;;;;;;;2.90;2.37;;;;;;;19.98;35.02;94022.75;6020701;28;108942;-65
2023/04/04 11:38:02;;;;;;;2.20;1.90;;;;;;;20.08;34.53;94032.28;6016049;28;109070;-65
2023/04/04 11:41:09;;;;;;;1.80;1.70;;;;;;;20.00;34.32;94018.72;6015196;28;109092;-65
2023/04/04 11:44:15;;;;;;;2.20;1.73;;;;;;;20.04;34.29;94018.84;6034442;28;108821;-65
2023/04/04 11:47:20;;;;;;;1.83;1.73;;;;;;;20.06;33.65;94018.53;6044552;28;108804;-65
2023/04/04 11:50:24;;;;;;;2.67;2.10;;;;;;;20.07;33.64;94025.41;6033987;28;108894;-65
2023/04/04 11:53:31;;;;;;;2.27;2.07;;;;;;;20.08;33.33;94022.44;6044458;28;108982;-65
2023/04/04 11:56:37;;;;;;;2.00;1.90;;;;;;;20.10;33.66;94028.19;6043439;28;108922;-65
2023/04/04 11:59:43;;;;;;;1.77;1.67;;;;;;;20.08;33.40;94030.41;6043830;28;108961;-66
2023/04/04 12:02:46;;;;;;;1.87;1.77;;;;;;;20.06;33.79;94024.63;6034021;28;110177;-65
2023/04/04 12:05:50;;;;;;;2.70;1.83;;;;;;;20.08;33.86;94030.41;6043360;28;108989;-66
2023/04/04 12:08:54;;;;;;;3.60;1.90;;;;;;;20.09;34.12;94031.94;6044056;28;108954;-65
2023/04/04 12:11:57;;;;;;;2.00;1.90;;;;;;;20.06;33.12;94029.16;6039357;28;108916;-65
2023/04/04 12:15:02;;;;;;;4.20;2.20;;;;;;;20.04;32.96;94040.09;6018322;28;109336;-66
2023/04/04 12:18:23;;;;;;;1.77;1.67;;;;;;;20.07;33.97;94036.81;6020634;29;108966;-64
2023/04/04 12:21:26;;;;;;;1.90;1.80;;;;;;;20.06;34.02;94035.25;6020583;29;108848;-64
2023/04/04 12:24:29;;;;;;;1.83;1.73;;;;;;;20.03;34.10;94043.84;6008785;28;109570;-64
2023/04/04 12:27:34;;;;;;;2.07;1.97;;;;;;;19.99;34.11;94038.38;6019408;28;108916;-64
2023/04/04 12:30:39;;;;;;;2.10;1.87;;;;;;;20.02;34.21;94045.72;6020287;29;109010;-64
2023/04/04 12:33:43;;;;;;;1.80;1.70;;;;;;;19.99;34.26;94045.56;6020330;29;109025;-64
2023/04/04 12:36:47;;;;;;;2.07;1.97;;;;;;;19.96;34.26;94041.66;6009731;28;109829;-64
2023/04/04 12:39:51;;;;;;;2.00;1.80;;;;;;;19.95;34.25;94042.75;6019571;28;108906;-64
2023/04/04 12:42:55;;;;;;;1.93;1.83;;;;;;;19.92;34.11;94037.31;6022635;28;108995;-63
2023/04/04 12:46:00;;;;;;;2.03;1.93;;;;;;;19.92;34.20;94040.75;6039401;28;108894;-63
2023/04/04 12:49:05;;;;;;;1.97;1.87;;;;;;;19.89;33.89;94053.88;6037830;28;109281;-63
2023/04/04 12:52:19;;;;;;;2.50;2.30;;;;;;;19.91;34.10;94052.47;6043176;28;108909;-63
2023/04/04 12:55:23;;;;;;;1.80;1.70;;;;;;;19.92;33.84;94051.38;6043321;28;108942;-63
2023/04/04 12:58:27;;;;;;;2.10;2.00;;;;;;;19.90;34.16;94060.75;6032292;28;109649;-63
2023/04/04 13:01:32;;;;;;;1.90;1.80;;;;;;;19.88;33.95;94065.59;6043020;28;108791;-63
2023/04/04 13:04:36;;;;;;;2.00;1.90;;;;;;;19.86;33.79;94065.13;6042546;28;108786;-63
2023/04/04 13:07:42;;;;;;;2.10;2.00;;;;;;;19.85;34.02;94067.00;6043051;28;108818;-63
2023/04/04 13:11:06;;;;;;;2.10;1.90;;;;;;;19.82;33.88;94072.13;6032042;28;109048;-63
2023/04/04 13:14:10;;;;;;;2.30;2.17;;;;;;;19.84;33.89;94075.28;6030320;28;108957;-63
2023/04/04 13:17:18;;;;;;;3.10;2.07;;;;;;;19.83;33.75;94079.03;6019191;28;108970;-63
2023/04/04 13:20:23;;;;;;;2.83;1.83;;;;;;;19.80;33.88;94079.63;6015476;28;109966;-63
2023/04/04 13:23:26;;;;;;;2.87;2.67;;;;;;;19.81;33.58;94075.88;6014633;28;109570;-63
2023/04/04 13:26:30;;;;;;;2.37;2.20;;;;;;;19.80;33.80;94084.94;6019115;29;108760;-63
2023/04/04 13:29:33;;;;;;;1.93;1.83;;;;;;;19.81;33.78;94086.50;6018211;29;109147;-63
2023/04/04 13:32:38;;;;;;;2.37;2.17;;;;;;;19.76;33.61;94084.03;6007766;28;108878;-64
2023/04/04 13:35:43;;;;;;;2.80;2.60;;;;;;;19.73;33.57;94088.09;6018806;28;108905;-63
2023/04/04 13:38:46;;;;;;;2.77;2.53;;;;;;;19.80;33.75;94101.66;6018936;29;108763;-63
2023/04/04 13:41:50;;;;;;;2.37;2.27;;;;;;;19.78;33.59;94100.41;6018851;29;108918;-67
2023/04/04 13:44:53;;;;;;;2.43;2.30;;;;;;;19.75;33.53;94091.22;6026227;28;109920;-64
2023/04/04 13:47:58;;;;;;;2.43;2.30;;;;;;;19.78;33.44;94103.06;6042031;28;108890;-64
2023/04/04 13:51:01;;;;;;;2.70;2.50;;;;;;;19.75;33.50;94120.41;6042238;28;109256;-63
2023/04/04 13:54:05;;;;;;;2.57;2.37;;;;;;;19.73;33.59;94112.75;6040231;28;109000;-63
2023/04/04 13:57:08;;;;;;;2.70;2.60;;;;;;;19.72;33.50;94131.66;6034584;28;108942;-63
2023/04/04 14:00:13;;;;;;;2.70;2.60;;;;;;;19.71;33.54;94124.78;6041303;28;109052;-64
2023/04/04 14:03:17;;;;;;;2.40;2.30;;;;;;;19.73;33.62;94128.69;6041797;28;108966;-64
2023/04/04 14:06:21;;;;;;;2.47;2.37;;;;;;;19.73;33.42;94136.66;6031104;28;108908;-63
2023/04/04 14:09:24;;;;;;;2.60;2.50;;;;;;;19.72;33.28;94136.97;6041515;28;108866;-63
2023/04/04 14:12:27;;;;;;;2.30;2.20;;;;;;;19.68;33.23;94139.47;6041719;28;108877;-64
2023/04/04 14:15:31;;;;;;;2.50;2.40;;;;;;;19.75;33.47;94140.84;6018963;28;108869;-63